createdAt,value
2023-04-21T00:02:46.951Z,79.98
2023-04-21T00:07:03.141Z,78.83
2023-04-21T00:11:15.603Z,78.46
2023-04-21T00:15:28.035Z,77.44
2023-04-21T00:19:40.338Z,78.23
2023-04-21T00:23:52.803Z,79.06
2023-04-21T00:28:05.304Z,79.71
2023-04-21T00:32:17.746Z,80.72
2023-04-21T00:36:30.098Z,81.99
2023-04-21T00:40:42.351Z,81.80
2023-04-21T00:44:57.391Z,81.67
2023-04-21T00:49:09.957Z,78.87
2023-04-21T00:53:22.830Z,79.28
2023-04-21T00:57:40.295Z,78.30
2023-04-21T01:01:53.324Z,79.85
2023-04-21T01:06:07.369Z,80.17
2023-04-21T01:10:22.485Z,80.04
2023-04-21T01:14:36.298Z,80.47
2023-04-21T01:18:49.958Z,81.71
2023-04-21T01:23:02.580Z,81.61
2023-04-21T01:27:20.188Z,81.86
2023-04-21T01:31:33.283Z,82.13
2023-04-21T01:35:46.261Z,81.35
2023-04-21T01:40:02.557Z,80.16
2023-04-21T01:44:14.950Z,79.71
2023-04-21T01:48:27.555Z,79.04
2023-04-21T01:52:39.899Z,81.12
2023-04-21T01:56:52.384Z,81.86
2023-04-21T02:01:06.411Z,81.37
2023-04-21T02:05:19.201Z,81.28
2023-04-21T02:09:32.272Z,81.22
2023-04-21T02:13:44.631Z,81.92
2023-04-21T02:17:58.736Z,80.73
2023-04-21T02:22:13.173Z,79.94
2023-04-21T02:26:25.966Z,79.53
2023-04-21T02:30:38.966Z,80.36
2023-04-21T02:34:52.243Z,81.01
2023-04-21T02:39:04.577Z,80.86
2023-04-21T02:43:17.468Z,79.98
2023-04-21T02:47:29.832Z,80.51
2023-04-21T02:51:42.748Z,81.04
2023-04-21T02:55:55.856Z,81.93
2023-04-21T03:00:12.148Z,82.99
2023-04-21T03:04:25.876Z,82.90
2023-04-21T03:08:38.341Z,82.08
2023-04-21T03:12:51.588Z,83.11
2023-04-21T03:17:03.944Z,82.21
2023-04-21T03:21:16.945Z,81.49
2023-04-21T03:25:29.872Z,80.97
2023-04-21T03:29:42.596Z,77.50
2023-04-21T03:33:54.988Z,79.38
2023-04-21T03:38:07.526Z,78.27
2023-04-21T03:42:20.867Z,78.65
2023-04-21T03:46:34.384Z,79.03
2023-04-21T03:50:46.845Z,78.13
2023-04-21T03:54:59.402Z,77.50
2023-04-21T03:59:11.807Z,77.42
2023-04-21T04:03:24.359Z,77.29
2023-04-21T04:07:36.704Z,75.48
2023-04-21T04:11:49.198Z,75.48
2023-04-21T04:16:01.600Z,75.22
2023-04-21T04:20:13.988Z,74.86
2023-04-21T04:24:27.037Z,75.76
2023-04-21T04:28:39.430Z,76.11
2023-04-21T04:32:53.246Z,73.89
2023-04-21T04:37:06.968Z,73.81
2023-04-21T04:41:21.161Z,74.42
2023-04-21T04:45:33.729Z,74.40
2023-04-21T04:49:46.170Z,73.15
2023-04-21T04:53:58.520Z,73.46
2023-04-21T04:58:10.990Z,73.49
2023-04-21T05:02:24.675Z,72.40
2023-04-21T05:06:37.540Z,70.28
2023-04-21T05:10:49.801Z,66.07
2023-04-21T05:15:02.197Z,64.00
2023-04-21T05:19:16.301Z,59.44
2023-04-21T05:23:30.589Z,60.33
2023-04-21T05:27:43.716Z,57.90
2023-04-21T05:31:56.232Z,57.23
2023-04-21T05:36:11.995Z,56.10
2023-04-21T05:40:24.483Z,59.01
2023-04-21T05:44:37.064Z,60.65
2023-04-21T05:48:49.562Z,61.35
2023-04-21T05:53:02.691Z,60.50
2023-04-21T05:57:16.966Z,58.80
2023-04-21T06:01:29.720Z,61.26
2023-04-21T06:05:42.207Z,62.32
2023-04-21T06:09:54.926Z,61.87
2023-04-21T06:14:08.456Z,64.02
2023-04-21T06:18:21.150Z,65.85
2023-04-21T06:22:34.033Z,65.76
2023-04-21T06:26:46.436Z,64.34
2023-04-21T06:30:59.751Z,65.80
2023-04-21T06:35:17.449Z,66.79
2023-04-21T06:39:29.872Z,65.18
2023-04-21T06:43:42.862Z,66.67
2023-04-21T06:47:55.297Z,66.69
2023-04-21T06:52:07.678Z,69.83
2023-04-21T06:56:20.059Z,67.76
2023-04-21T07:00:32.547Z,66.40
2023-04-21T07:04:45.122Z,67.58
2023-04-21T07:08:57.766Z,67.40
2023-04-21T07:13:10.253Z,65.78
2023-04-21T07:17:23.496Z,65.42
2023-04-21T07:21:36.545Z,64.68
2023-04-21T07:25:48.988Z,65.21
2023-04-21T07:30:01.510Z,62.63
2023-04-21T07:34:13.919Z,62.35
2023-04-21T07:38:26.509Z,60.31
2023-04-21T07:42:39.356Z,59.93
2023-04-21T07:46:51.852Z,60.79
2023-04-21T07:51:04.376Z,58.94
2023-04-21T07:55:16.930Z,56.61
2023-04-21T07:59:29.251Z,57.01
2023-04-21T08:03:43.212Z,55.46
2023-04-21T08:07:55.948Z,58.40
2023-04-21T08:12:08.414Z,58.35
2023-04-21T08:16:20.895Z,54.75
2023-04-21T08:20:33.341Z,53.63
2023-04-21T08:24:45.774Z,51.52
2023-04-21T08:28:58.217Z,51.97
2023-04-21T08:33:14.083Z,47.97
2023-04-21T08:37:26.509Z,48.70
2023-04-21T08:41:40.956Z,51.56
2023-04-21T08:45:56.463Z,50.10
2023-04-21T08:50:13.822Z,48.37
2023-04-21T08:54:28.034Z,45.70
2023-04-21T08:58:42.178Z,44.43
2023-04-21T09:03:01.739Z,43.89
2023-04-21T09:07:35.425Z,43.99
2023-04-21T09:11:57.417Z,44.01
2023-04-21T09:16:21.965Z,43.32
2023-04-21T09:20:34.932Z,45.24
2023-04-21T09:24:49.076Z,44.18
2023-04-21T09:29:02.136Z,48.68
2023-04-21T09:33:29.595Z,43.79
2023-04-21T09:37:46.788Z,43.22
2023-04-21T09:41:59.705Z,43.65
2023-04-21T09:46:13.354Z,45.67
2023-04-21T09:50:54.812Z,45.72
2023-04-21T09:55:04.724Z,45.90
2023-04-21T09:59:23.531Z,46.25
2023-04-21T10:03:40.257Z,45.25
2023-04-21T10:07:53.960Z,45.02
2023-04-21T10:12:09.163Z,43.71
2023-04-21T10:16:23.531Z,41.20
2023-04-21T10:21:03.398Z,43.33
2023-04-21T10:25:15.765Z,44.08
2023-04-21T10:29:47.873Z,42.62
2023-04-21T10:34:06.935Z,39.02
2023-04-21T10:38:35.911Z,40.19
2023-04-21T10:42:49.791Z,43.31
2023-04-21T10:47:02.195Z,45.08
2023-04-21T10:51:15.616Z,42.77
2023-04-21T10:55:29.748Z,43.92
2023-04-21T10:59:42.582Z,48.37
2023-04-21T11:03:58.553Z,46.77
2023-04-21T11:08:15.730Z,44.37
2023-04-21T11:12:30.617Z,43.47
2023-04-21T11:16:43.595Z,42.06
2023-04-21T11:20:56.115Z,40.26
2023-04-21T11:25:18.914Z,40.21
2023-04-21T11:29:31.332Z,44.82
2023-04-21T11:33:43.882Z,43.11
2023-04-21T11:37:56.776Z,42.99
2023-04-21T11:42:09.220Z,42.34
2023-04-21T11:46:28.835Z,44.49
2023-04-21T11:50:41.413Z,43.30
2023-04-21T11:55:26.519Z,43.71
2023-04-21T11:59:39.005Z,42.37
2023-04-21T12:03:56.027Z,41.81
2023-04-21T12:08:15.210Z,44.45
2023-04-21T12:12:27.977Z,42.53
2023-04-21T12:16:40.422Z,42.05
2023-04-21T12:20:53.602Z,41.58
2023-04-21T12:25:06.554Z,40.91
2023-04-21T12:29:18.856Z,40.96
2023-04-21T12:33:31.641Z,41.97
2023-04-21T12:37:45.131Z,44.31
2023-04-21T12:41:58.821Z,43.48
2023-04-21T12:46:11.348Z,44.41
2023-04-21T12:50:23.672Z,46.61
2023-04-21T12:54:36.357Z,44.18
2023-04-21T12:58:49.802Z,42.65
2023-04-21T13:03:02.774Z,42.33
2023-04-21T13:07:16.502Z,42.66
2023-04-21T13:11:29.066Z,41.00
2023-04-21T13:15:41.967Z,40.41
2023-04-21T13:19:54.390Z,39.36
2023-04-21T13:24:06.983Z,39.76
2023-04-21T13:28:19.981Z,39.02
2023-04-21T13:32:32.337Z,39.89
2023-04-21T13:36:45.352Z,41.51
2023-04-21T13:40:59.706Z,40.30
2023-04-21T13:45:12.550Z,41.29
2023-04-21T13:49:25.014Z,41.02
2023-04-21T13:53:37.447Z,40.18
2023-04-21T13:57:49.797Z,43.10
2023-04-21T14:02:02.430Z,44.20
2023-04-21T14:06:15.011Z,44.65
2023-04-21T14:10:27.605Z,46.53
2023-04-21T14:14:40.006Z,48.69
2023-04-21T14:18:53.809Z,48.18
2023-04-21T14:23:06.195Z,50.76
2023-04-21T14:27:18.675Z,49.63
2023-04-21T14:31:31.196Z,49.20
2023-04-21T14:35:43.621Z,50.26
2023-04-21T14:39:56.030Z,50.72
2023-04-21T14:44:08.749Z,50.07
2023-04-21T14:48:21.738Z,48.79
2023-04-21T14:52:34.101Z,48.09
2023-04-21T14:56:46.554Z,50.43
2023-04-21T15:00:59.419Z,49.55
2023-04-21T15:05:12.045Z,48.95
2023-04-21T15:09:24.578Z,50.51
2023-04-21T15:13:37.083Z,50.65
2023-04-21T15:17:49.484Z,51.18
2023-04-21T15:22:01.769Z,50.47
2023-04-21T15:26:14.144Z,50.93
2023-04-21T15:30:26.514Z,52.18
2023-04-21T15:34:38.858Z,50.03
2023-04-21T15:38:51.296Z,50.18
2023-04-21T15:43:03.659Z,48.25
2023-04-21T15:47:17.312Z,46.45
2023-04-21T15:51:29.694Z,46.59
2023-04-21T15:55:41.978Z,47.86
2023-04-21T15:59:54.611Z,48.58
2023-04-21T16:04:07.263Z,49.08
2023-04-21T16:08:19.850Z,47.70
2023-04-21T16:12:32.189Z,48.23
2023-04-21T16:16:45.671Z,47.90
2023-04-21T16:20:58.254Z,48.10
2023-04-21T16:25:14.129Z,49.26
2023-04-21T16:29:27.048Z,50.30
2023-04-21T16:33:39.417Z,52.34
2023-04-21T16:37:51.819Z,54.19
2023-04-21T16:42:04.402Z,55.88
2023-04-21T16:46:17.512Z,56.51
2023-04-21T16:50:29.920Z,58.31
2023-04-21T16:54:42.354Z,58.90
2023-04-21T16:58:54.713Z,61.00
2023-04-21T17:03:07.436Z,62.46
2023-04-21T17:07:19.948Z,63.10
2023-04-21T17:11:33.890Z,63.21
2023-04-21T17:15:46.268Z,63.40
2023-04-21T17:19:58.600Z,64.46
2023-04-21T17:24:11.094Z,65.00
2023-04-21T17:28:23.503Z,65.13
2023-04-21T17:32:41.157Z,65.54
2023-04-21T17:36:53.627Z,66.88
2023-04-21T17:41:07.931Z,67.04
2023-04-21T17:45:20.522Z,68.06
2023-04-21T17:49:32.871Z,69.07
2023-04-21T17:53:46.660Z,70.20
2023-04-21T17:57:59.288Z,71.67
2023-04-21T18:02:11.657Z,72.34
2023-04-21T18:06:24.520Z,72.87
2023-04-21T18:10:38.233Z,73.32
2023-04-21T18:14:50.597Z,74.18
2023-04-21T18:19:03.119Z,74.66
2023-04-21T18:23:15.487Z,74.96
2023-04-21T18:27:27.915Z,75.20
2023-04-21T18:31:40.481Z,75.38
2023-04-21T18:35:52.855Z,74.95
2023-04-21T18:40:05.966Z,75.73
2023-04-21T18:44:18.446Z,76.09
2023-04-21T18:48:30.852Z,76.00
2023-04-21T18:52:43.581Z,76.48
2023-04-21T18:56:55.978Z,77.21
2023-04-21T19:01:08.703Z,76.82
2023-04-21T19:05:21.160Z,76.87
2023-04-21T19:09:33.567Z,77.12
2023-04-21T19:13:48.334Z,76.75
2023-04-21T19:18:00.792Z,76.55
2023-04-21T19:22:13.446Z,76.52
2023-04-21T19:26:26.541Z,76.90
2023-04-21T19:30:38.915Z,76.93
2023-04-21T19:34:51.460Z,76.94
2023-04-21T19:39:05.740Z,77.37
2023-04-21T19:43:19.715Z,77.39
2023-04-21T19:47:36.507Z,77.69
2023-04-21T19:51:48.826Z,78.93
2023-04-21T19:56:01.592Z,79.51
2023-04-21T20:00:15.582Z,79.49
2023-04-21T20:04:28.010Z,79.53
2023-04-21T20:08:40.541Z,79.24
2023-04-21T20:12:53.037Z,79.51
2023-04-21T20:17:05.580Z,79.30
2023-04-21T20:21:17.970Z,78.99
2023-04-21T20:25:30.453Z,79.61
2023-04-21T20:29:42.969Z,78.43
2023-04-21T20:33:55.483Z,79.08
2023-04-21T20:38:08.241Z,79.58
2023-04-21T20:42:22.059Z,80.34
2023-04-21T20:46:35.599Z,80.82
2023-04-21T20:50:49.793Z,76.75
2023-04-21T20:55:03.649Z,77.35
2023-04-21T20:59:16.187Z,77.63
2023-04-21T21:03:29.202Z,77.70
2023-04-21T21:07:41.673Z,78.66
2023-04-21T21:11:54.064Z,78.52
2023-04-21T21:16:06.917Z,76.93
2023-04-21T21:20:19.391Z,76.51
2023-04-21T21:24:31.827Z,78.08
2023-04-21T21:28:44.263Z,76.66
2023-04-21T21:32:56.809Z,78.05
2023-04-21T21:37:09.176Z,77.47
2023-04-21T21:41:21.538Z,76.85
2023-04-21T21:45:34.228Z,76.97
2023-04-21T21:49:46.700Z,77.18
2023-04-21T21:53:59.042Z,76.31
2023-04-21T21:58:11.469Z,76.35
2023-04-21T22:02:23.994Z,75.83
2023-04-21T22:06:37.124Z,76.42
2023-04-21T22:10:49.569Z,77.01
2023-04-21T22:15:01.925Z,76.34
2023-04-21T22:19:14.818Z,77.17
2023-04-21T22:23:28.800Z,78.61
2023-04-21T22:27:41.124Z,78.80
2023-04-21T22:31:53.613Z,80.09
2023-04-21T22:36:07.282Z,79.45
2023-04-21T22:40:21.694Z,79.72
2023-04-21T22:44:34.026Z,79.97
2023-04-21T22:48:46.825Z,80.14
2023-04-21T22:52:59.148Z,80.62
2023-04-21T22:57:11.667Z,80.38
2023-04-21T23:01:24.199Z,78.88
2023-04-21T23:05:36.731Z,78.71
2023-04-21T23:09:49.171Z,79.12
2023-04-21T23:14:01.464Z,79.49
2023-04-21T23:18:13.890Z,80.47
2023-04-21T23:22:26.408Z,82.18
2023-04-21T23:26:38.972Z,81.28
2023-04-21T23:30:51.455Z,81.33
2023-04-21T23:35:05.044Z,82.04
2023-04-21T23:39:18.531Z,81.77
2023-04-21T23:43:32.138Z,80.54
2023-04-21T23:47:45.905Z,81.25
2023-04-21T23:51:58.745Z,79.74
2023-04-21T23:56:11.098Z,78.67
